METAR Rapporter

 

EKOD - Odense/Beldringe, Denmark
Distance from station: NNV 51km
Opdateret: 27/05/2018 16:50
NOT Current
Light thunderstorm, Regn, Mest skyet
Light thunderstorm, Regn, Mest skyet
 Vind retning NØ
Vind: NØ 19 km/h
Temperatur: 18°C
Dugpunkt: 17°C
Fugtighed: 94%
Barometer: 1023 hPa
Oversigt: Light thunderstorm, Regn
Clouds: Mest skyet
Visibility: 5 km
Cloud details: Delvist skyet 335 m
Mest skyet 853 m
2018/05/27 14:50 EKOD 271450Z 04010KT 010V070 5000 -TSRA SCT011CB BKN028 18/17 Q1023
EKSB - Sonderborg Airpo, Denmark
Distance from station: V 53km
Opdateret: 28/05/2018 04:50
Regn, Mest skyet
Regn, Mest skyet
 Vind retning SØ
Vind: SØ 9 km/h
Temperatur: 15°C
Dugpunkt: 15°C
Fugtighed: 100%
Barometer: 1022 hPa
Oversigt: Regn
Clouds: Mest skyet
Visibility: 10 miles
Cloud details: Mest skyet 244 m
Mest skyet 2713 m
2018/05/28 02:50 EKSB 280250Z AUTO 13005KT 6000NDV RA BKN008/// BKN089/// 15/15 Q1022
 
EKSP - Skrydstrup(Dan-A, Denmark
Distance from station: VNV 88km
Opdateret: 28/05/2018 04:50
Regn, Showers, Mist, Mest skyet
Regn, Showers, Mist, Mest skyet
 Vind retning SØ
Vind: SØ 15 km/h
Temperatur: 15°C
Dugpunkt: 14°C
Fugtighed: 94%
Barometer: 1022 hPa
Oversigt: Regn, Showers, Mist
Clouds: Mest skyet
Visibility: 4 km
Cloud details: Few Clouds 457 m
Delvist skyet 914 m
Mest skyet 1829 m
2018/05/28 02:50 EKSP 280250Z 13008KT 3500 +SHRA BR FEW015 SCT030CB BKN060 15/14 Q1022 RETS
EKVD - Vamdrup (aut/Man, Denmark
Distance from station: VNV 92km
Opdateret: 01/01/1970 01:00
NOT Current
unable to load EKVD data RC=404 Not Found
unable to load EKVD data RC=404 Not Found